sensor_id;sensor_type;location;lat;lon;timestamp;P1;durP1;ratioP1;P2;durP2;ratioP2
25758;SDS011;13604;52.496;13.456;2023-05-19T00:01:10;10.77;;;2.70;;
25758;SDS011;13604;52.496;13.456;2023-05-19T00:03:37;7.35;;;2.28;;
25758;SDS011;13604;52.496;13.456;2023-05-19T00:06:12;8.23;;;2.13;;
25758;SDS011;13604;52.496;13.456;2023-05-19T00:08:38;8.93;;;2.20;;
25758;SDS011;13604;52.496;13.456;2023-05-19T00:11:03;7.97;;;2.33;;
25758;SDS011;13604;52.496;13.456;2023-05-19T00:13:30;7.72;;;1.90;;
25758;SDS011;13604;52.496;13.456;2023-05-19T00:15:55;10.38;;;2.53;;
25758;SDS011;13604;52.496;13.456;2023-05-19T00:18:21;8.40;;;2.00;;
25758;SDS011;13604;52.496;13.456;2023-05-19T00:20:47;6.72;;;2.17;;
25758;SDS011;13604;52.496;13.456;2023-05-19T00:23:12;9.02;;;2.58;;
25758;SDS011;13604;52.496;13.456;2023-05-19T00:25:37;6.13;;;2.30;;
25758;SDS011;13604;52.496;13.456;2023-05-19T00:28:03;9.38;;;2.63;;
25758;SDS011;13604;52.496;13.456;2023-05-19T00:30:28;10.07;;;2.25;;
25758;SDS011;13604;52.496;13.456;2023-05-19T00:32:54;10.80;;;2.70;;
25758;SDS011;13604;52.496;13.456;2023-05-19T00:35:20;5.07;;;2.17;;
25758;SDS011;13604;52.496;13.456;2023-05-19T00:37:45;7.97;;;2.15;;
25758;SDS011;13604;52.496;13.456;2023-05-19T00:40:11;6.60;;;2.17;;
25758;SDS011;13604;52.496;13.456;2023-05-19T00:42:37;8.45;;;2.20;;
25758;SDS011;13604;52.496;13.456;2023-05-19T00:45:02;7.78;;;2.42;;
25758;SDS011;13604;52.496;13.456;2023-05-19T00:47:28;7.63;;;2.20;;
25758;SDS011;13604;52.496;13.456;2023-05-19T00:49:53;13.77;;;2.92;;
25758;SDS011;13604;52.496;13.456;2023-05-19T00:52:18;8.10;;;2.63;;
25758;SDS011;13604;52.496;13.456;2023-05-19T00:54:44;5.53;;;2.00;;
25758;SDS011;13604;52.496;13.456;2023-05-19T00:57:10;9.85;;;2.35;;
25758;SDS011;13604;52.496;13.456;2023-05-19T00:59:37;5.68;;;2.42;;
25758;SDS011;13604;52.496;13.456;2023-05-19T01:02:03;5.15;;;2.10;;
25758;SDS011;13604;52.496;13.456;2023-05-19T01:04:28;7.50;;;1.70;;
25758;SDS011;13604;52.496;13.456;2023-05-19T01:06:58;8.13;;;2.22;;
25758;SDS011;13604;52.496;13.456;2023-05-19T01:09:24;6.47;;;2.50;;
25758;SDS011;13604;52.496;13.456;2023-05-19T01:11:49;6.00;;;2.00;;
25758;SDS011;13604;52.496;13.456;2023-05-19T01:14:15;7.07;;;2.13;;
25758;SDS011;13604;52.496;13.456;2023-05-19T01:17:00;7.82;;;2.20;;
25758;SDS011;13604;52.496;13.456;2023-05-19T01:24:56;6.03;;;2.20;;
25758;SDS011;13604;52.496;13.456;2023-05-19T01:30:42;5.93;;;2.00;;
25758;SDS011;13604;52.496;13.456;2023-05-19T01:33:09;8.45;;;2.20;;
25758;SDS011;13604;52.496;13.456;2023-05-19T01:35:38;9.50;;;2.53;;
25758;SDS011;13604;52.496;13.456;2023-05-19T01:38:07;8.30;;;2.00;;
25758;SDS011;13604;52.496;13.456;2023-05-19T01:40:33;7.15;;;2.13;;
25758;SDS011;13604;52.496;13.456;2023-05-19T01:43:01;8.20;;;1.90;;
25758;SDS011;13604;52.496;13.456;2023-05-19T01:45:28;6.13;;;1.90;;
25758;SDS011;13604;52.496;13.456;2023-05-19T01:47:57;8.85;;;2.15;;
25758;SDS011;13604;52.496;13.456;2023-05-19T01:50:23;7.65;;;2.15;;
25758;SDS011;13604;52.496;13.456;2023-05-19T01:52:49;15.20;;;2.95;;
25758;SDS011;13604;52.496;13.456;2023-05-19T01:55:14;4.72;;;1.80;;
25758;SDS011;13604;52.496;13.456;2023-05-19T01:57:55;6.00;;;2.00;;
25758;SDS011;13604;52.496;13.456;2023-05-19T02:03:41;8.15;;;2.38;;
25758;SDS011;13604;52.496;13.456;2023-05-19T02:06:20;4.95;;;1.67;;
25758;SDS011;13604;52.496;13.456;2023-05-19T02:09:01;8.48;;;1.90;;
25758;SDS011;13604;52.496;13.456;2023-05-19T02:11:35;4.95;;;2.05;;
25758;SDS011;13604;52.496;13.456;2023-05-19T02:14:19;13.02;;;2.25;;
25758;SDS011;13604;52.496;13.456;2023-05-19T02:16:49;4.47;;;1.98;;
25758;SDS011;13604;52.496;13.456;2023-05-19T02:19:26;8.32;;;2.20;;
25758;SDS011;13604;52.496;13.456;2023-05-19T02:21:53;8.18;;;2.28;;
25758;SDS011;13604;52.496;13.456;2023-05-19T02:24:18;5.82;;;2.25;;
25758;SDS011;13604;52.496;13.456;2023-05-19T02:26:44;9.23;;;2.45;;
25758;SDS011;13604;52.496;13.456;2023-05-19T02:29:10;4.20;;;2.10;;
25758;SDS011;13604;52.496;13.456;2023-05-19T02:31:35;7.13;;;2.58;;
25758;SDS011;13604;52.496;13.456;2023-05-19T02:34:00;6.03;;;2.20;;
25758;SDS011;13604;52.496;13.456;2023-05-19T02:36:26;8.68;;;2.67;;
25758;SDS011;13604;52.496;13.456;2023-05-19T02:38:52;10.43;;;2.92;;
25758;SDS011;13604;52.496;13.456;2023-05-19T02:41:17;4.85;;;2.05;;
25758;SDS011;13604;52.496;13.456;2023-05-19T02:43:42;7.75;;;2.60;;
25758;SDS011;13604;52.496;13.456;2023-05-19T02:46:08;4.90;;;1.83;;
25758;SDS011;13604;52.496;13.456;2023-05-19T02:48:33;3.67;;;2.20;;
25758;SDS011;13604;52.496;13.456;2023-05-19T02:50:58;5.88;;;2.30;;
25758;SDS011;13604;52.496;13.456;2023-05-19T02:53:23;6.50;;;2.30;;
25758;SDS011;13604;52.496;13.456;2023-05-19T02:55:49;9.13;;;2.63;;
25758;SDS011;13604;52.496;13.456;2023-05-19T02:58:15;5.57;;;2.28;;
25758;SDS011;13604;52.496;13.456;2023-05-19T03:00:40;5.97;;;2.33;;
25758;SDS011;13604;52.496;13.456;2023-05-19T03:03:06;6.07;;;1.98;;
25758;SDS011;13604;52.496;13.456;2023-05-19T03:05:31;7.07;;;2.47;;
25758;SDS011;13604;52.496;13.456;2023-05-19T03:07:56;6.68;;;2.00;;
25758;SDS011;13604;52.496;13.456;2023-05-19T03:10:21;7.07;;;2.70;;
25758;SDS011;13604;52.496;13.456;2023-05-19T03:12:47;7.57;;;2.40;;
25758;SDS011;13604;52.496;13.456;2023-05-19T03:15:12;5.07;;;1.85;;
25758;SDS011;13604;52.496;13.456;2023-05-19T03:17:38;6.40;;;2.28;;
25758;SDS011;13604;52.496;13.456;2023-05-19T03:20:04;4.20;;;1.70;;
25758;SDS011;13604;52.496;13.456;2023-05-19T03:22:30;5.03;;;2.25;;
25758;SDS011;13604;52.496;13.456;2023-05-19T03:24:56;5.80;;;2.33;;
25758;SDS011;13604;52.496;13.456;2023-05-19T03:27:22;9.85;;;2.53;;
25758;SDS011;13604;52.496;13.456;2023-05-19T03:29:47;10.57;;;2.78;;
25758;SDS011;13604;52.496;13.456;2023-05-19T03:32:13;6.47;;;2.15;;
25758;SDS011;13604;52.496;13.456;2023-05-19T03:34:38;12.73;;;2.38;;
25758;SDS011;13604;52.496;13.456;2023-05-19T03:37:03;4.32;;;1.73;;
25758;SDS011;13604;52.496;13.456;2023-05-19T03:39:29;5.93;;;2.25;;
25758;SDS011;13604;52.496;13.456;2023-05-19T03:41:54;6.78;;;2.58;;
25758;SDS011;13604;52.496;13.456;2023-05-19T03:44:20;5.40;;;2.65;;
25758;SDS011;13604;52.496;13.456;2023-05-19T03:46:45;8.15;;;2.42;;
25758;SDS011;13604;52.496;13.456;2023-05-19T03:49:10;6.60;;;2.33;;
25758;SDS011;13604;52.496;13.456;2023-05-19T03:51:36;8.23;;;2.40;;
25758;SDS011;13604;52.496;13.456;2023-05-19T03:54:01;5.97;;;2.15;;
25758;SDS011;13604;52.496;13.456;2023-05-19T03:56:27;8.10;;;3.05;;
25758;SDS011;13604;52.496;13.456;2023-05-19T03:58:52;10.15;;;2.45;;
25758;SDS011;13604;52.496;13.456;2023-05-19T04:01:18;6.13;;;2.33;;
25758;SDS011;13604;52.496;13.456;2023-05-19T04:03:44;8.70;;;2.47;;
25758;SDS011;13604;52.496;13.456;2023-05-19T04:06:09;6.03;;;2.25;;
25758;SDS011;13604;52.496;13.456;2023-05-19T04:08:35;8.40;;;2.45;;
25758;SDS011;13604;52.496;13.456;2023-05-19T04:11:00;6.82;;;2.63;;
25758;SDS011;13604;52.496;13.456;2023-05-19T04:13:25;7.70;;;2.13;;
25758;SDS011;13604;52.496;13.456;2023-05-19T04:15:51;6.93;;;2.20;;
25758;SDS011;13604;52.496;13.456;2023-05-19T04:18:16;6.13;;;3.22;;
25758;SDS011;13604;52.496;13.456;2023-05-19T04:20:41;11.93;;;2.33;;
25758;SDS011;13604;52.496;13.456;2023-05-19T04:23:07;10.35;;;2.17;;
25758;SDS011;13604;52.496;13.456;2023-05-19T04:25:32;5.68;;;2.13;;
25758;SDS011;13604;52.496;13.456;2023-05-19T04:28:00;8.45;;;2.58;;
25758;SDS011;13604;52.496;13.456;2023-05-19T04:30:25;11.27;;;2.50;;
25758;SDS011;13604;52.496;13.456;2023-05-19T04:32:50;3.67;;;1.80;;
25758;SDS011;13604;52.496;13.456;2023-05-19T04:35:15;8.32;;;2.38;;
25758;SDS011;13604;52.496;13.456;2023-05-19T04:37:43;6.25;;;2.58;;
25758;SDS011;13604;52.496;13.456;2023-05-19T04:40:12;11.57;;;3.03;;
25758;SDS011;13604;52.496;13.456;2023-05-19T04:42:38;6.93;;;2.30;;
25758;SDS011;13604;52.496;13.456;2023-05-19T04:45:07;6.07;;;2.60;;
25758;SDS011;13604;52.496;13.456;2023-05-19T04:47:33;12.85;;;2.50;;
25758;SDS011;13604;52.496;13.456;2023-05-19T04:50:02;8.27;;;2.65;;
25758;SDS011;13604;52.496;13.456;2023-05-19T04:52:28;8.77;;;2.78;;
25758;SDS011;13604;52.496;13.456;2023-05-19T04:54:53;7.63;;;2.75;;
25758;SDS011;13604;52.496;13.456;2023-05-19T04:57:18;4.60;;;2.67;;
25758;SDS011;13604;52.496;13.456;2023-05-19T04:59:44;5.47;;;2.67;;
25758;SDS011;13604;52.496;13.456;2023-05-19T05:02:10;7.95;;;2.88;;
25758;SDS011;13604;52.496;13.456;2023-05-19T05:04:35;7.28;;;2.58;;
25758;SDS011;13604;52.496;13.456;2023-05-19T05:07:00;7.80;;;3.38;;
25758;SDS011;13604;52.496;13.456;2023-05-19T05:09:26;6.65;;;2.80;;
25758;SDS011;13604;52.496;13.456;2023-05-19T05:11:51;7.50;;;2.70;;
25758;SDS011;13604;52.496;13.456;2023-05-19T05:14:17;8.25;;;2.80;;
25758;SDS011;13604;52.496;13.456;2023-05-19T05:16:42;5.30;;;2.97;;
25758;SDS011;13604;52.496;13.456;2023-05-19T05:19:07;5.00;;;2.28;;
25758;SDS011;13604;52.496;13.456;2023-05-19T05:21:33;8.13;;;2.67;;
25758;SDS011;13604;52.496;13.456;2023-05-19T05:23:59;9.15;;;2.78;;
25758;SDS011;13604;52.496;13.456;2023-05-19T05:26:25;9.95;;;3.15;;
25758;SDS011;13604;52.496;13.456;2023-05-19T05:28:53;4.45;;;2.08;;
25758;SDS011;13604;52.496;13.456;2023-05-19T05:31:19;8.95;;;2.60;;
25758;SDS011;13604;52.496;13.456;2023-05-19T05:33:45;6.22;;;2.38;;
25758;SDS011;13604;52.496;13.456;2023-05-19T05:36:10;10.23;;;2.92;;
25758;SDS011;13604;52.496;13.456;2023-05-19T05:38:35;9.60;;;3.15;;
25758;SDS011;13604;52.496;13.456;2023-05-19T05:41:01;10.05;;;3.20;;
25758;SDS011;13604;52.496;13.456;2023-05-19T05:43:27;5.75;;;2.33;;
25758;SDS011;13604;52.496;13.456;2023-05-19T05:45:53;6.28;;;2.55;;
25758;SDS011;13604;52.496;13.456;2023-05-19T05:48:18;6.55;;;2.67;;
25758;SDS011;13604;52.496;13.456;2023-05-19T05:50:44;10.32;;;3.05;;
25758;SDS011;13604;52.496;13.456;2023-05-19T05:53:10;8.52;;;2.85;;
25758;SDS011;13604;52.496;13.456;2023-05-19T05:55:42;7.35;;;2.88;;
25758;SDS011;13604;52.496;13.456;2023-05-19T05:58:07;5.72;;;2.53;;
25758;SDS011;13604;52.496;13.456;2023-05-19T06:00:35;8.70;;;2.95;;
25758;SDS011;13604;52.496;13.456;2023-05-19T06:03:00;6.22;;;2.30;;
25758;SDS011;13604;52.496;13.456;2023-05-19T06:05:27;4.05;;;2.33;;
25758;SDS011;13604;52.496;13.456;2023-05-19T06:07:52;5.70;;;2.17;;
25758;SDS011;13604;52.496;13.456;2023-05-19T06:10:17;10.40;;;3.47;;
25758;SDS011;13604;52.496;13.456;2023-05-19T06:12:43;6.13;;;2.67;;
25758;SDS011;13604;52.496;13.456;2023-05-19T06:15:08;6.57;;;2.50;;
25758;SDS011;13604;52.496;13.456;2023-05-19T06:17:34;8.07;;;2.50;;
25758;SDS011;13604;52.496;13.456;2023-05-19T06:20:00;9.85;;;2.95;;
25758;SDS011;13604;52.496;13.456;2023-05-19T06:22:26;6.32;;;2.40;;
25758;SDS011;13604;52.496;13.456;2023-05-19T06:24:52;5.50;;;2.47;;
25758;SDS011;13604;52.496;13.456;2023-05-19T06:27:17;6.25;;;2.53;;
25758;SDS011;13604;52.496;13.456;2023-05-19T06:29:42;8.10;;;2.53;;
25758;SDS011;13604;52.496;13.456;2023-05-19T06:32:08;4.70;;;2.70;;
25758;SDS011;13604;52.496;13.456;2023-05-19T06:34:33;5.07;;;2.53;;
25758;SDS011;13604;52.496;13.456;2023-05-19T06:36:58;6.20;;;2.50;;
25758;SDS011;13604;52.496;13.456;2023-05-19T06:39:26;6.10;;;2.45;;
25758;SDS011;13604;52.496;13.456;2023-05-19T06:41:51;8.82;;;3.22;;
25758;SDS011;13604;52.496;13.456;2023-05-19T06:44:16;6.28;;;3.20;;
25758;SDS011;13604;52.496;13.456;2023-05-19T06:46:42;6.85;;;3.05;;
25758;SDS011;13604;52.496;13.456;2023-05-19T06:49:08;5.20;;;2.33;;
25758;SDS011;13604;52.496;13.456;2023-05-19T06:51:33;5.22;;;2.50;;
25758;SDS011;13604;52.496;13.456;2023-05-19T06:53:59;5.57;;;2.85;;
25758;SDS011;13604;52.496;13.456;2023-05-19T06:56:24;6.32;;;2.38;;
25758;SDS011;13604;52.496;13.456;2023-05-19T06:58:49;6.53;;;2.60;;
25758;SDS011;13604;52.496;13.456;2023-05-19T07:01:15;4.80;;;2.38;;
25758;SDS011;13604;52.496;13.456;2023-05-19T07:03:40;5.55;;;2.97;;
25758;SDS011;13604;52.496;13.456;2023-05-19T07:06:05;2.92;;;2.33;;
25758;SDS011;13604;52.496;13.456;2023-05-19T07:08:31;5.50;;;2.58;;
25758;SDS011;13604;52.496;13.456;2023-05-19T07:10:56;8.98;;;3.03;;
25758;SDS011;13604;52.496;13.456;2023-05-19T07:13:21;7.13;;;2.80;;
25758;SDS011;13604;52.496;13.456;2023-05-19T07:15:47;5.85;;;2.78;;
25758;SDS011;13604;52.496;13.456;2023-05-19T07:18:16;5.65;;;3.00;;
25758;SDS011;13604;52.496;13.456;2023-05-19T07:20:41;5.53;;;2.90;;
25758;SDS011;13604;52.496;13.456;2023-05-19T07:23:07;7.00;;;3.00;;
25758;SDS011;13604;52.496;13.456;2023-05-19T07:25:32;6.35;;;2.63;;
25758;SDS011;13604;52.496;13.456;2023-05-19T07:27:57;8.85;;;2.95;;
25758;SDS011;13604;52.496;13.456;2023-05-19T07:30:23;4.95;;;2.72;;
25758;SDS011;13604;52.496;13.456;2023-05-19T07:32:50;7.97;;;2.80;;
25758;SDS011;13604;52.496;13.456;2023-05-19T07:35:15;9.63;;;3.00;;
25758;SDS011;13604;52.496;13.456;2023-05-19T07:37:41;5.47;;;2.55;;
25758;SDS011;13604;52.496;13.456;2023-05-19T07:40:06;5.80;;;2.33;;
25758;SDS011;13604;52.496;13.456;2023-05-19T07:42:32;7.65;;;2.70;;
25758;SDS011;13604;52.496;13.456;2023-05-19T07:44:58;6.97;;;2.63;;
25758;SDS011;13604;52.496;13.456;2023-05-19T07:47:23;6.60;;;2.90;;
25758;SDS011;13604;52.496;13.456;2023-05-19T07:49:48;5.75;;;2.67;;
25758;SDS011;13604;52.496;13.456;2023-05-19T07:52:13;8.95;;;3.05;;
25758;SDS011;13604;52.496;13.456;2023-05-19T07:54:39;7.35;;;3.47;;
25758;SDS011;13604;52.496;13.456;2023-05-19T07:57:04;5.82;;;3.45;;
25758;SDS011;13604;52.496;13.456;2023-05-19T07:59:30;6.10;;;3.08;;
25758;SDS011;13604;52.496;13.456;2023-05-19T08:01:55;4.60;;;3.03;;
25758;SDS011;13604;52.496;13.456;2023-05-19T08:04:20;9.18;;;3.40;;
25758;SDS011;13604;52.496;13.456;2023-05-19T08:06:45;4.25;;;2.63;;
25758;SDS011;13604;52.496;13.456;2023-05-19T08:09:11;9.38;;;3.20;;
25758;SDS011;13604;52.496;13.456;2023-05-19T08:11:36;3.10;;;2.70;;
25758;SDS011;13604;52.496;13.456;2023-05-19T08:14:01;6.18;;;2.60;;
25758;SDS011;13604;52.496;13.456;2023-05-19T08:16:27;8.05;;;3.10;;
25758;SDS011;13604;52.496;13.456;2023-05-19T08:18:52;6.50;;;2.47;;
25758;SDS011;13604;52.496;13.456;2023-05-19T08:21:18;5.50;;;2.33;;
25758;SDS011;13604;52.496;13.456;2023-05-19T08:23:44;5.45;;;2.60;;
25758;SDS011;13604;52.496;13.456;2023-05-19T08:26:09;8.35;;;2.55;;
25758;SDS011;13604;52.496;13.456;2023-05-19T08:28:34;6.57;;;2.97;;
25758;SDS011;13604;52.496;13.456;2023-05-19T08:31:00;7.80;;;3.20;;
25758;SDS011;13604;52.496;13.456;2023-05-19T08:33:25;5.53;;;2.03;;
25758;SDS011;13604;52.496;13.456;2023-05-19T08:35:50;5.90;;;2.45;;
25758;SDS011;13604;52.496;13.456;2023-05-19T08:38:16;3.95;;;2.85;;
25758;SDS011;13604;52.496;13.456;2023-05-19T08:40:41;6.50;;;2.38;;
25758;SDS011;13604;52.496;13.456;2023-05-19T08:43:10;5.57;;;2.60;;
25758;SDS011;13604;52.496;13.456;2023-05-19T08:45:35;5.82;;;2.72;;
25758;SDS011;13604;52.496;13.456;2023-05-19T08:48:02;4.15;;;2.03;;
25758;SDS011;13604;52.496;13.456;2023-05-19T08:50:28;3.67;;;2.00;;
25758;SDS011;13604;52.496;13.456;2023-05-19T08:52:57;3.40;;;1.92;;
25758;SDS011;13604;52.496;13.456;2023-05-19T08:55:40;2.08;;;1.70;;
25758;SDS011;13604;52.496;13.456;2023-05-19T08:58:11;5.75;;;2.15;;
25758;SDS011;13604;52.496;13.456;2023-05-19T09:00:36;3.00;;;1.90;;
25758;SDS011;13604;52.496;13.456;2023-05-19T09:03:02;4.78;;;1.65;;
25758;SDS011;13604;52.496;13.456;2023-05-19T09:05:28;6.90;;;2.10;;
25758;SDS011;13604;52.496;13.456;2023-05-19T09:07:54;3.78;;;2.20;;
25758;SDS011;13604;52.496;13.456;2023-05-19T09:10:19;4.30;;;1.90;;
25758;SDS011;13604;52.496;13.456;2023-05-19T09:12:45;3.78;;;1.63;;
25758;SDS011;13604;52.496;13.456;2023-05-19T09:15:12;3.70;;;1.60;;
25758;SDS011;13604;52.496;13.456;2023-05-19T09:17:40;6.93;;;1.80;;
25758;SDS011;13604;52.496;13.456;2023-05-19T09:20:05;3.45;;;1.73;;
25758;SDS011;13604;52.496;13.456;2023-05-19T09:22:39;5.07;;;1.60;;
25758;SDS011;13604;52.496;13.456;2023-05-19T09:25:05;5.55;;;1.77;;
25758;SDS011;13604;52.496;13.456;2023-05-19T09:27:41;2.72;;;1.60;;
25758;SDS011;13604;52.496;13.456;2023-05-19T09:30:06;3.78;;;1.52;;
25758;SDS011;13604;52.496;13.456;2023-05-19T09:32:33;5.10;;;1.45;;
25758;SDS011;13604;52.496;13.456;2023-05-19T09:35:01;4.63;;;1.42;;
25758;SDS011;13604;52.496;13.456;2023-05-19T09:37:27;6.57;;;1.30;;
25758;SDS011;13604;52.496;13.456;2023-05-19T09:39:52;2.78;;;1.45;;
25758;SDS011;13604;52.496;13.456;2023-05-19T09:42:22;4.07;;;1.50;;
25758;SDS011;13604;52.496;13.456;2023-05-19T09:44:57;8.75;;;1.50;;
25758;SDS011;13604;52.496;13.456;2023-05-19T09:47:26;2.75;;;1.48;;
25758;SDS011;13604;52.496;13.456;2023-05-19T09:49:52;3.72;;;1.02;;
25758;SDS011;13604;52.496;13.456;2023-05-19T09:52:17;3.83;;;1.50;;
25758;SDS011;13604;52.496;13.456;2023-05-19T09:54:43;2.58;;;1.48;;
25758;SDS011;13604;52.496;13.456;2023-05-19T09:57:09;6.82;;;1.77;;
25758;SDS011;13604;52.496;13.456;2023-05-19T09:59:34;8.10;;;1.70;;
25758;SDS011;13604;52.496;13.456;2023-05-19T10:02:02;3.33;;;1.65;;
25758;SDS011;13604;52.496;13.456;2023-05-19T10:04:29;2.40;;;1.00;;
25758;SDS011;13604;52.496;13.456;2023-05-19T10:06:55;8.07;;;1.60;;
25758;SDS011;13604;52.496;13.456;2023-05-19T10:09:24;5.03;;;1.60;;
25758;SDS011;13604;52.496;13.456;2023-05-19T10:11:51;3.22;;;1.52;;
25758;SDS011;13604;52.496;13.456;2023-05-19T10:14:21;3.80;;;1.38;;
25758;SDS011;13604;52.496;13.456;2023-05-19T10:16:55;7.47;;;1.40;;
25758;SDS011;13604;52.496;13.456;2023-05-19T10:19:25;2.83;;;1.33;;
25758;SDS011;13604;52.496;13.456;2023-05-19T10:21:51;10.43;;;1.45;;
25758;SDS011;13604;52.496;13.456;2023-05-19T10:24:18;3.30;;;1.65;;
25758;SDS011;13604;52.496;13.456;2023-05-19T10:29:16;5.00;;;1.50;;
25758;SDS011;13604;52.496;13.456;2023-05-19T10:31:45;4.07;;;1.40;;
25758;SDS011;13604;52.496;13.456;2023-05-19T10:36:49;4.07;;;1.40;;
25758;SDS011;13604;52.496;13.456;2023-05-19T10:39:27;2.92;;;1.38;;
25758;SDS011;13604;52.496;13.456;2023-05-19T10:42:15;2.15;;;1.10;;
25758;SDS011;13604;52.496;13.456;2023-05-19T10:47:39;9.45;;;1.50;;
25758;SDS011;13604;52.496;13.456;2023-05-19T10:50:05;3.58;;;1.30;;
25758;SDS011;13604;52.496;13.456;2023-05-19T10:52:32;3.78;;;1.42;;
25758;SDS011;13604;52.496;13.456;2023-05-19T10:55:01;1.48;;;1.23;;
25758;SDS011;13604;52.496;13.456;2023-05-19T10:57:26;3.25;;;1.63;;
25758;SDS011;13604;52.496;13.456;2023-05-19T10:59:52;3.17;;;1.40;;
25758;SDS011;13604;52.496;13.456;2023-05-19T11:02:36;2.35;;;1.45;;
25758;SDS011;13604;52.496;13.456;2023-05-19T11:05:12;4.95;;;1.38;;
25758;SDS011;13604;52.496;13.456;2023-05-19T11:08:04;4.63;;;1.10;;
25758;SDS011;13604;52.496;13.456;2023-05-19T11:10:31;4.28;;;1.50;;
25758;SDS011;13604;52.496;13.456;2023-05-19T11:12:57;2.33;;;1.30;;
25758;SDS011;13604;52.496;13.456;2023-05-19T11:15:24;1.90;;;1.40;;
25758;SDS011;13604;52.496;13.456;2023-05-19T11:17:50;3.70;;;1.20;;
25758;SDS011;13604;52.496;13.456;2023-05-19T11:20:26;5.50;;;1.42;;
25758;SDS011;13604;52.496;13.456;2023-05-19T11:23:05;2.72;;;1.75;;
25758;SDS011;13604;52.496;13.456;2023-05-19T11:25:50;1.52;;;1.35;;
25758;SDS011;13604;52.496;13.456;2023-05-19T11:28:18;3.15;;;1.20;;
25758;SDS011;13604;52.496;13.456;2023-05-19T11:30:46;3.30;;;2.10;;
25758;SDS011;13604;52.496;13.456;2023-05-19T11:33:14;8.02;;;1.48;;
25758;SDS011;13604;52.496;13.456;2023-05-19T11:35:43;4.40;;;1.30;;
25758;SDS011;13604;52.496;13.456;2023-05-19T11:38:13;2.35;;;1.40;;
25758;SDS011;13604;52.496;13.456;2023-05-19T11:40:40;4.55;;;1.42;;
25758;SDS011;13604;52.496;13.456;2023-05-19T11:43:06;3.67;;;1.73;;
25758;SDS011;13604;52.496;13.456;2023-05-19T11:45:31;2.67;;;1.50;;
25758;SDS011;13604;52.496;13.456;2023-05-19T11:47:57;2.45;;;1.20;;
25758;SDS011;13604;52.496;13.456;2023-05-19T11:50:23;4.32;;;1.40;;
25758;SDS011;13604;52.496;13.456;2023-05-19T11:52:49;4.93;;;1.75;;
25758;SDS011;13604;52.496;13.456;2023-05-19T11:55:16;4.55;;;1.60;;
25758;SDS011;13604;52.496;13.456;2023-05-19T11:57:49;4.35;;;1.48;;
25758;SDS011;13604;52.496;13.456;2023-05-19T12:00:22;4.50;;;1.50;;
25758;SDS011;13604;52.496;13.456;2023-05-19T12:02:48;4.28;;;1.73;;
25758;SDS011;13604;52.496;13.456;2023-05-19T12:05:20;3.30;;;1.67;;
25758;SDS011;13604;52.496;13.456;2023-05-19T12:07:46;2.17;;;1.60;;
25758;SDS011;13604;52.496;13.456;2023-05-19T12:10:15;2.25;;;1.30;;
25758;SDS011;13604;52.496;13.456;2023-05-19T12:12:41;2.65;;;1.77;;
25758;SDS011;13604;52.496;13.456;2023-05-19T12:15:09;5.50;;;1.40;;
25758;SDS011;13604;52.496;13.456;2023-05-19T12:17:34;4.57;;;1.33;;
25758;SDS011;13604;52.496;13.456;2023-05-19T12:20:00;1.60;;;1.50;;
25758;SDS011;13604;52.496;13.456;2023-05-19T12:22:26;4.25;;;1.60;;
25758;SDS011;13604;52.496;13.456;2023-05-19T12:24:52;4.15;;;2.10;;
25758;SDS011;13604;52.496;13.456;2023-05-19T12:27:18;1.45;;;1.23;;
25758;SDS011;13604;52.496;13.456;2023-05-19T12:29:53;4.65;;;1.33;;
25758;SDS011;13604;52.496;13.456;2023-05-19T12:32:23;5.00;;;1.50;;
25758;SDS011;13604;52.496;13.456;2023-05-19T12:34:49;4.72;;;1.40;;
25758;SDS011;13604;52.496;13.456;2023-05-19T12:37:15;3.38;;;1.40;;
25758;SDS011;13604;52.496;13.456;2023-05-19T12:39:41;2.78;;;1.67;;
25758;SDS011;13604;52.496;13.456;2023-05-19T12:42:06;4.88;;;1.38;;
25758;SDS011;13604;52.496;13.456;2023-05-19T12:44:48;2.00;;;1.60;;
25758;SDS011;13604;52.496;13.456;2023-05-19T12:47:18;1.83;;;1.40;;
25758;SDS011;13604;52.496;13.456;2023-05-19T12:50:00;3.80;;;1.90;;
25758;SDS011;13604;52.496;13.456;2023-05-19T12:52:26;6.18;;;1.65;;
25758;SDS011;13604;52.496;13.456;2023-05-19T12:57:32;3.40;;;1.88;;
25758;SDS011;13604;52.496;13.456;2023-05-19T13:00:05;2.63;;;1.50;;
25758;SDS011;13604;52.496;13.456;2023-05-19T13:02:34;2.78;;;1.70;;
25758;SDS011;13604;52.496;13.456;2023-05-19T13:05:01;3.80;;;1.63;;
25758;SDS011;13604;52.496;13.456;2023-05-19T13:07:28;3.30;;;1.50;;
25758;SDS011;13604;52.496;13.456;2023-05-19T13:09:53;5.70;;;1.70;;
25758;SDS011;13604;52.496;13.456;2023-05-19T13:12:19;5.03;;;1.77;;
25758;SDS011;13604;52.496;13.456;2023-05-19T13:14:44;2.70;;;1.55;;
25758;SDS011;13604;52.496;13.456;2023-05-19T13:17:09;1.40;;;1.20;;
25758;SDS011;13604;52.496;13.456;2023-05-19T13:19:35;1.75;;;1.55;;
25758;SDS011;13604;52.496;13.456;2023-05-19T13:22:00;2.07;;;1.70;;
25758;SDS011;13604;52.496;13.456;2023-05-19T13:24:26;6.18;;;1.40;;
25758;SDS011;13604;52.496;13.456;2023-05-19T13:26:51;3.97;;;1.63;;
25758;SDS011;13604;52.496;13.456;2023-05-19T13:29:16;4.47;;;1.77;;
25758;SDS011;13604;52.496;13.456;2023-05-19T13:31:42;4.57;;;1.88;;
25758;SDS011;13604;52.496;13.456;2023-05-19T13:34:07;2.95;;;1.80;;
25758;SDS011;13604;52.496;13.456;2023-05-19T13:36:32;1.70;;;1.60;;
25758;SDS011;13604;52.496;13.456;2023-05-19T13:38:58;4.85;;;1.73;;
25758;SDS011;13604;52.496;13.456;2023-05-19T13:41:24;4.10;;;1.77;;
25758;SDS011;13604;52.496;13.456;2023-05-19T13:43:51;2.00;;;1.63;;
25758;SDS011;13604;52.496;13.456;2023-05-19T13:46:16;8.82;;;1.85;;
25758;SDS011;13604;52.496;13.456;2023-05-19T13:48:42;7.82;;;1.65;;
25758;SDS011;13604;52.496;13.456;2023-05-19T13:51:07;3.72;;;1.65;;
25758;SDS011;13604;52.496;13.456;2023-05-19T13:53:32;3.20;;;1.67;;
25758;SDS011;13604;52.496;13.456;2023-05-19T13:55:59;5.70;;;1.83;;
25758;SDS011;13604;52.496;13.456;2023-05-19T13:58:25;5.05;;;1.77;;
25758;SDS011;13604;52.496;13.456;2023-05-19T14:00:50;3.97;;;1.75;;
25758;SDS011;13604;52.496;13.456;2023-05-19T14:03:18;1.95;;;1.40;;
25758;SDS011;13604;52.496;13.456;2023-05-19T14:05:44;6.78;;;1.58;;
25758;SDS011;13604;52.496;13.456;2023-05-19T14:08:11;5.30;;;1.70;;
25758;SDS011;13604;52.496;13.456;2023-05-19T14:10:37;6.35;;;1.90;;
25758;SDS011;13604;52.496;13.456;2023-05-19T14:13:02;4.00;;;1.90;;
25758;SDS011;13604;52.496;13.456;2023-05-19T14:15:28;7.75;;;1.80;;
25758;SDS011;13604;52.496;13.456;2023-05-19T14:17:53;1.70;;;1.48;;
25758;SDS011;13604;52.496;13.456;2023-05-19T14:20:18;3.97;;;1.83;;
25758;SDS011;13604;52.496;13.456;2023-05-19T14:22:44;3.00;;;1.75;;
25758;SDS011;13604;52.496;13.456;2023-05-19T14:25:09;8.82;;;2.00;;
25758;SDS011;13604;52.496;13.456;2023-05-19T14:27:34;1.88;;;1.63;;
25758;SDS011;13604;52.496;13.456;2023-05-19T14:30:00;3.30;;;1.50;;
25758;SDS011;13604;52.496;13.456;2023-05-19T14:32:25;6.55;;;1.63;;
25758;SDS011;13604;52.496;13.456;2023-05-19T14:34:50;5.50;;;1.77;;
25758;SDS011;13604;52.496;13.456;2023-05-19T14:37:17;4.78;;;1.55;;
25758;SDS011;13604;52.496;13.456;2023-05-19T14:39:42;2.50;;;1.65;;
25758;SDS011;13604;52.496;13.456;2023-05-19T14:42:08;4.35;;;1.83;;
25758;SDS011;13604;52.496;13.456;2023-05-19T14:44:33;3.20;;;1.80;;
25758;SDS011;13604;52.496;13.456;2023-05-19T14:46:59;6.10;;;1.73;;
25758;SDS011;13604;52.496;13.456;2023-05-19T14:49:25;3.67;;;1.60;;
25758;SDS011;13604;52.496;13.456;2023-05-19T14:51:50;4.85;;;1.70;;
25758;SDS011;13604;52.496;13.456;2023-05-19T14:54:15;3.22;;;1.38;;